createdAt,value
2023-04-16T00:00:58.279Z,99.90
2023-04-16T00:02:00.155Z,99.90
2023-04-16T00:03:02.138Z,99.90
2023-04-16T00:04:04.417Z,99.90
2023-04-16T00:05:06.716Z,99.90
2023-04-16T00:06:08.577Z,99.90
2023-04-16T00:07:10.304Z,99.90
2023-04-16T00:08:12.070Z,99.90
2023-04-16T00:09:13.830Z,99.90
2023-04-16T00:10:16.052Z,99.90
2023-04-16T00:11:18.448Z,99.90
2023-04-16T00:12:20.287Z,99.90
2023-04-16T00:13:22.730Z,99.90
2023-04-16T00:14:24.576Z,99.90
2023-04-16T00:15:26.376Z,99.90
2023-04-16T00:16:28.248Z,99.90
2023-04-16T00:17:30.111Z,99.90
2023-04-16T00:18:32.469Z,99.90
2023-04-16T00:19:34.216Z,99.90
2023-04-16T00:20:39.203Z,99.90
2023-04-16T00:21:41.196Z,99.90
2023-04-16T00:22:43.016Z,99.90
2023-04-16T00:23:44.801Z,99.90
2023-04-16T00:24:46.586Z,99.90
2023-04-16T00:25:48.287Z,99.90
2023-04-16T00:26:50.023Z,99.90
2023-04-16T00:27:51.814Z,99.90
2023-04-16T00:28:53.523Z,99.90
2023-04-16T00:29:55.423Z,99.90
2023-04-16T00:30:57.348Z,99.90
2023-04-16T00:31:59.145Z,99.90
2023-04-16T00:33:01.076Z,99.90
2023-04-16T00:34:02.820Z,99.90
2023-04-16T00:35:04.980Z,99.90
2023-04-16T00:36:07.441Z,99.90
2023-04-16T00:37:09.163Z,99.90
2023-04-16T00:38:10.902Z,99.90
2023-04-16T00:39:12.683Z,99.90
2023-04-16T00:40:14.432Z,99.90
2023-04-16T00:41:16.977Z,99.90
2023-04-16T00:42:18.723Z,99.90
2023-04-16T00:43:23.212Z,99.90
2023-04-16T00:44:25.002Z,99.90
2023-04-16T00:45:27.228Z,99.90
2023-04-16T00:46:29.377Z,99.90
2023-04-16T00:47:31.836Z,99.90
2023-04-16T00:48:35.041Z,99.90
2023-04-16T00:49:37.015Z,99.90
2023-04-16T00:50:38.807Z,99.90
2023-04-16T00:51:40.903Z,99.90
2023-04-16T00:52:43.157Z,99.90
2023-04-16T00:53:46.377Z,99.90
2023-04-16T00:54:48.721Z,99.90
2023-04-16T00:55:51.007Z,99.90
2023-04-16T00:56:52.762Z,99.90
2023-04-16T00:57:54.533Z,99.90
2023-04-16T00:58:56.816Z,99.90
2023-04-16T00:59:58.885Z,99.90
2023-04-16T01:01:01.614Z,99.90
2023-04-16T01:02:03.483Z,99.90
2023-04-16T01:03:06.018Z,99.90
2023-04-16T01:04:08.200Z,99.90
2023-04-16T01:05:10.194Z,99.90
2023-04-16T01:06:12.532Z,99.90
2023-04-16T01:07:14.318Z,99.90
2023-04-16T01:08:20.426Z,99.90
2023-04-16T01:09:22.195Z,99.90
2023-04-16T01:10:23.880Z,99.90
2023-04-16T01:11:25.810Z,99.90
2023-04-16T01:12:27.591Z,99.90
2023-04-16T01:13:29.984Z,99.90
2023-04-16T01:14:36.162Z,99.90
2023-04-16T01:15:38.026Z,99.90
2023-04-16T01:16:39.808Z,99.90
2023-04-16T01:17:41.588Z,99.90
2023-04-16T01:18:43.424Z,99.90
2023-04-16T01:19:45.198Z,99.90
2023-04-16T01:20:51.289Z,99.90
2023-04-16T01:21:53.056Z,99.90
2023-04-16T01:22:54.925Z,99.90
2023-04-16T01:23:56.759Z,99.90
2023-04-16T01:24:58.522Z,99.90
2023-04-16T01:26:00.479Z,99.90
2023-04-16T01:27:02.301Z,99.90
2023-04-16T01:28:04.422Z,99.90
2023-04-16T01:29:06.429Z,99.90
2023-04-16T01:30:08.784Z,99.90
2023-04-16T01:31:10.567Z,99.90
2023-04-16T01:32:12.349Z,99.90
2023-04-16T01:33:15.125Z,99.90
2023-04-16T01:34:16.917Z,99.90
2023-04-16T01:35:18.712Z,99.90
2023-04-16T01:36:20.636Z,99.90
2023-04-16T01:37:22.408Z,99.90
2023-04-16T01:38:24.233Z,99.90
2023-04-16T01:39:26.366Z,99.90
2023-04-16T01:40:28.148Z,99.90
2023-04-16T01:41:31.846Z,99.90
2023-04-16T01:42:33.642Z,99.90
2023-04-16T01:43:35.609Z,99.90
2023-04-16T01:44:37.682Z,99.90
2023-04-16T01:45:39.500Z,99.90
2023-04-16T01:46:41.412Z,99.90
2023-04-16T01:47:43.329Z,99.90
2023-04-16T01:48:45.249Z,99.90
2023-04-16T01:49:48.254Z,99.90
2023-04-16T01:50:50.225Z,99.90
2023-04-16T01:51:52.975Z,99.90
2023-04-16T01:52:54.701Z,99.90
2023-04-16T01:53:58.184Z,99.90
2023-04-16T01:55:00.010Z,99.90
2023-04-16T01:56:01.886Z,99.90
2023-04-16T01:57:03.694Z,99.90
2023-04-16T01:58:07.406Z,99.90
2023-04-16T01:59:09.492Z,99.90
2023-04-16T02:00:11.705Z,99.90
2023-04-16T02:01:14.087Z,99.90
2023-04-16T02:02:16.983Z,99.90
2023-04-16T02:03:18.900Z,99.90
2023-04-16T02:04:20.802Z,99.90
2023-04-16T02:05:22.626Z,99.90
2023-04-16T02:06:24.419Z,99.90
2023-04-16T02:07:27.379Z,99.90
2023-04-16T02:08:29.260Z,99.90
2023-04-16T02:09:31.330Z,99.90
2023-04-16T02:10:33.077Z,99.90
2023-04-16T02:11:34.872Z,99.90
2023-04-16T02:12:36.613Z,99.90
2023-04-16T02:13:38.358Z,99.90
2023-04-16T02:14:40.120Z,99.90
2023-04-16T02:15:46.145Z,99.90
2023-04-16T02:16:48.010Z,99.90
2023-04-16T02:17:54.954Z,99.90
2023-04-16T02:18:56.727Z,99.90
2023-04-16T02:19:58.472Z,99.90
2023-04-16T02:21:00.481Z,99.90
2023-04-16T02:22:02.510Z,99.90
2023-04-16T02:23:04.299Z,99.90
2023-04-16T02:24:06.223Z,99.90
2023-04-16T02:25:08.243Z,99.90
2023-04-16T02:26:10.352Z,99.90
2023-04-16T02:27:12.062Z,99.90
2023-04-16T02:28:16.352Z,99.90
2023-04-16T02:29:18.281Z,99.90
2023-04-16T02:30:20.185Z,99.90
2023-04-16T02:31:22.781Z,99.90
2023-04-16T02:32:24.592Z,99.90
2023-04-16T02:33:26.740Z,99.90
2023-04-16T02:34:28.532Z,99.90
2023-04-16T02:35:30.429Z,99.90
2023-04-16T02:36:32.553Z,99.90
2023-04-16T02:37:34.289Z,99.90
2023-04-16T02:38:37.480Z,99.90
2023-04-16T02:39:39.269Z,99.90
2023-04-16T02:40:41.295Z,99.90
2023-04-16T02:41:43.051Z,99.90
2023-04-16T02:42:44.741Z,99.90
2023-04-16T02:43:46.480Z,99.90
2023-04-16T02:44:48.204Z,99.90
2023-04-16T02:45:50.482Z,99.90
2023-04-16T02:46:52.349Z,99.90
2023-04-16T02:47:54.477Z,99.90
2023-04-16T02:48:56.308Z,99.90
2023-04-16T02:49:58.039Z,99.90
2023-04-16T02:50:59.902Z,99.90
2023-04-16T02:52:01.643Z,99.90
2023-04-16T02:53:04.315Z,99.90
2023-04-16T02:54:06.074Z,99.90
2023-04-16T02:55:10.952Z,99.90
2023-04-16T02:56:13.070Z,99.90
2023-04-16T02:57:14.817Z,99.90
2023-04-16T02:58:16.549Z,99.90
2023-04-16T02:59:18.276Z,99.90
2023-04-16T03:00:20.120Z,99.90
2023-04-16T03:01:21.920Z,99.90
2023-04-16T03:02:23.801Z,99.90
2023-04-16T03:03:25.635Z,99.90
2023-04-16T03:04:27.433Z,99.90
2023-04-16T03:05:29.632Z,99.90
2023-04-16T03:06:31.626Z,99.90
2023-04-16T03:07:33.385Z,99.90
2023-04-16T03:08:35.164Z,99.90
2023-04-16T03:09:37.031Z,99.90
2023-04-16T03:10:38.941Z,99.90
2023-04-16T03:11:40.675Z,99.90
2023-04-16T03:12:42.429Z,99.90
2023-04-16T03:13:44.211Z,99.90
2023-04-16T03:14:46.050Z,99.90
2023-04-16T03:15:50.985Z,99.90
2023-04-16T03:16:52.939Z,99.90
2023-04-16T03:17:54.932Z,99.90
2023-04-16T03:18:56.699Z,99.90
2023-04-16T03:19:58.645Z,99.90
2023-04-16T03:21:00.528Z,99.90
2023-04-16T03:22:02.283Z,99.90
2023-04-16T03:23:04.042Z,99.90
2023-04-16T03:24:05.794Z,99.90
2023-04-16T03:25:08.438Z,99.90
2023-04-16T03:26:10.377Z,99.90
2023-04-16T03:27:12.505Z,99.90
2023-04-16T03:28:14.988Z,99.90
2023-04-16T03:29:16.717Z,99.90
2023-04-16T03:30:18.445Z,99.90
2023-04-16T03:31:20.614Z,99.90
2023-04-16T03:32:22.464Z,99.90
2023-04-16T03:33:24.292Z,99.90
2023-04-16T03:34:26.155Z,99.90
2023-04-16T03:35:28.045Z,99.90
2023-04-16T03:36:29.782Z,99.90
2023-04-16T03:37:31.961Z,99.90
2023-04-16T03:38:33.695Z,99.90
2023-04-16T03:39:35.628Z,99.90
2023-04-16T03:40:37.469Z,99.90
2023-04-16T03:41:39.246Z,99.90
2023-04-16T03:42:41.104Z,99.90
2023-04-16T03:43:42.977Z,99.90
2023-04-16T03:44:44.915Z,99.90
2023-04-16T03:45:47.481Z,99.90
2023-04-16T03:46:49.346Z,99.90
2023-04-16T03:47:52.870Z,99.90
2023-04-16T03:48:54.792Z,99.90
2023-04-16T03:49:56.537Z,99.90
2023-04-16T03:50:58.477Z,99.90
2023-04-16T03:52:00.239Z,99.90
2023-04-16T03:53:02.003Z,99.90
2023-04-16T03:54:03.795Z,99.90
2023-04-16T03:55:06.168Z,99.90
2023-04-16T03:56:07.924Z,99.90
2023-04-16T03:57:09.659Z,99.90
2023-04-16T03:58:11.424Z,99.90
2023-04-16T03:59:13.199Z,99.90
2023-04-16T04:00:14.997Z,99.90
2023-04-16T04:01:16.857Z,99.90
2023-04-16T04:02:18.768Z,99.90
2023-04-16T04:03:20.773Z,99.90
2023-04-16T04:04:22.752Z,99.90
2023-04-16T04:05:24.702Z,99.90
2023-04-16T04:06:27.490Z,99.90
2023-04-16T04:07:29.311Z,99.90
2023-04-16T04:08:31.068Z,99.90
2023-04-16T04:09:33.972Z,99.90
2023-04-16T04:10:36.349Z,99.90
2023-04-16T04:11:38.063Z,99.90
2023-04-16T04:12:39.850Z,99.90
2023-04-16T04:13:41.585Z,99.90
2023-04-16T04:14:43.349Z,99.90
2023-04-16T04:15:45.251Z,99.90
2023-04-16T04:16:47.007Z,99.90
2023-04-16T04:17:48.859Z,99.90
2023-04-16T04:18:50.814Z,99.90
2023-04-16T04:20:00.984Z,99.90
2023-04-16T04:21:10.393Z,99.90
2023-04-16T04:22:12.159Z,99.90
2023-04-16T04:23:13.911Z,99.90
2023-04-16T04:24:15.685Z,99.90
2023-04-16T04:25:17.864Z,99.90
2023-04-16T04:26:19.688Z,99.90
2023-04-16T04:27:21.452Z,99.90
2023-04-16T04:28:23.274Z,99.90
2023-04-16T04:29:25.039Z,99.90
2023-04-16T04:30:26.803Z,99.90
2023-04-16T04:31:28.602Z,99.90
2023-04-16T04:32:31.127Z,99.90
2023-04-16T04:33:33.507Z,99.90
2023-04-16T04:34:35.590Z,99.90
2023-04-16T04:35:37.320Z,99.90
2023-04-16T04:36:39.039Z,99.90
2023-04-16T04:37:41.032Z,99.90
2023-04-16T04:38:42.782Z,99.90
2023-04-16T04:39:44.529Z,99.90
2023-04-16T04:40:46.877Z,99.90
2023-04-16T04:41:48.847Z,99.90
2023-04-16T04:42:50.566Z,99.90
2023-04-16T04:43:52.350Z,99.90
2023-04-16T04:44:54.097Z,99.90
2023-04-16T04:45:57.852Z,99.90
2023-04-16T04:46:59.725Z,99.90
2023-04-16T04:48:01.565Z,99.90
2023-04-16T04:49:03.447Z,99.90
2023-04-16T04:50:05.859Z,99.90
2023-04-16T04:51:07.621Z,99.90
2023-04-16T04:52:11.557Z,99.90
2023-04-16T04:53:14.841Z,99.90
2023-04-16T04:54:16.637Z,99.90
2023-04-16T04:55:18.476Z,99.90
2023-04-16T04:56:20.825Z,99.90
2023-04-16T04:57:22.561Z,99.90
2023-04-16T04:58:24.341Z,99.90
2023-04-16T04:59:26.213Z,99.90
2023-04-16T05:00:27.937Z,99.90
2023-04-16T05:01:29.735Z,99.90
2023-04-16T05:02:31.635Z,99.90
2023-04-16T05:03:33.556Z,99.90
2023-04-16T05:04:35.515Z,99.90
2023-04-16T05:05:37.720Z,99.90
2023-04-16T05:06:39.524Z,99.90
2023-04-16T05:07:41.403Z,99.90
2023-04-16T05:08:43.208Z,99.90
2023-04-16T05:09:44.955Z,99.90
2023-04-16T05:10:46.671Z,99.90
2023-04-16T05:11:48.424Z,99.90
2023-04-16T05:12:50.261Z,99.90
2023-04-16T05:13:52.038Z,99.90
2023-04-16T05:14:53.798Z,99.90
2023-04-16T05:15:55.674Z,99.90
2023-04-16T05:16:57.593Z,99.90
2023-04-16T05:17:59.482Z,99.90
2023-04-16T05:19:01.301Z,99.90
2023-04-16T05:20:03.130Z,99.90
2023-04-16T05:21:05.204Z,99.90
2023-04-16T05:22:06.977Z,99.90
2023-04-16T05:23:08.759Z,99.90
2023-04-16T05:24:10.825Z,99.90
2023-04-16T05:25:13.345Z,99.90
2023-04-16T05:26:15.115Z,99.90
2023-04-16T05:27:16.884Z,99.90
2023-04-16T05:28:18.707Z,99.90
2023-04-16T05:29:20.470Z,99.90
2023-04-16T05:30:22.232Z,99.90
2023-04-16T05:31:24.094Z,99.90
2023-04-16T05:32:27.467Z,99.90
2023-04-16T05:33:29.523Z,99.90
2023-04-16T05:34:31.460Z,99.90
2023-04-16T05:35:33.274Z,99.90
2023-04-16T05:36:35.218Z,99.90
2023-04-16T05:37:36.979Z,99.90
2023-04-16T05:38:38.703Z,99.90
2023-04-16T05:39:40.457Z,99.90
2023-04-16T05:40:42.936Z,99.90
2023-04-16T05:41:44.708Z,99.90
2023-04-16T05:42:46.449Z,99.90
2023-04-16T05:43:48.203Z,99.90
2023-04-16T05:44:51.235Z,99.90
2023-04-16T05:45:53.036Z,99.90
2023-04-16T05:46:54.777Z,99.90
2023-04-16T05:47:56.580Z,99.90
2023-04-16T05:48:58.335Z,99.90
2023-04-16T05:50:00.154Z,99.90
2023-04-16T05:51:02.749Z,99.90
2023-04-16T05:52:05.652Z,99.90
2023-04-16T05:53:08.774Z,99.90
2023-04-16T05:54:10.575Z,99.90
2023-04-16T05:55:12.351Z,99.90
2023-04-16T05:56:14.098Z,99.90
2023-04-16T05:57:15.834Z,99.90
2023-04-16T05:58:17.618Z,99.90
2023-04-16T05:59:19.324Z,99.90
2023-04-16T06:00:21.190Z,99.90
2023-04-16T06:01:22.978Z,99.90
2023-04-16T06:02:25.073Z,99.90
2023-04-16T06:03:27.461Z,99.90
2023-04-16T06:04:30.994Z,99.90
2023-04-16T06:05:32.781Z,99.90
2023-04-16T06:06:34.572Z,99.90
2023-04-16T06:07:36.292Z,99.90
2023-04-16T06:08:38.013Z,99.90
2023-04-16T06:09:39.833Z,99.90
2023-04-16T06:10:41.603Z,99.90
2023-04-16T06:11:43.405Z,99.90
2023-04-16T06:12:45.275Z,99.90
2023-04-16T06:13:47.116Z,99.90
2023-04-16T06:14:48.906Z,99.90
2023-04-16T06:15:50.779Z,99.90
2023-04-16T06:16:52.537Z,99.90
2023-04-16T06:17:54.926Z,99.90
2023-04-16T06:18:56.700Z,99.90
2023-04-16T06:19:58.418Z,99.90
2023-04-16T06:21:00.298Z,99.90
2023-04-16T06:22:02.091Z,99.90
2023-04-16T06:23:03.876Z,99.90
2023-04-16T06:24:06.216Z,99.90
2023-04-16T06:25:08.432Z,99.90
2023-04-16T06:26:11.393Z,99.90
2023-04-16T06:27:13.128Z,99.90
2023-04-16T06:28:14.910Z,99.90
2023-04-16T06:29:16.630Z,99.90
2023-04-16T06:30:20.042Z,99.90
2023-04-16T06:31:21.936Z,99.90
2023-04-16T06:32:23.841Z,99.90
2023-04-16T06:33:25.835Z,99.90
2023-04-16T06:34:28.526Z,99.90
2023-04-16T06:35:30.393Z,99.90
2023-04-16T06:36:32.179Z,99.90
2023-04-16T06:37:33.932Z,99.90
2023-04-16T06:38:36.945Z,99.90
2023-04-16T06:39:38.696Z,99.90
2023-04-16T06:40:40.703Z,99.90
2023-04-16T06:41:42.857Z,99.90
2023-04-16T06:42:45.636Z,99.90
2023-04-16T06:43:47.540Z,99.90
2023-04-16T06:44:49.355Z,99.90
2023-04-16T06:45:51.235Z,99.90
2023-04-16T06:46:53.066Z,99.90
2023-04-16T06:47:54.894Z,99.90
2023-04-16T06:48:56.742Z,99.90
2023-04-16T06:49:58.467Z,99.90
2023-04-16T06:51:00.536Z,99.90
2023-04-16T06:52:05.165Z,99.90
2023-04-16T06:53:07.839Z,99.90
2023-04-16T06:54:09.641Z,99.90
2023-04-16T06:55:11.581Z,99.90
2023-04-16T06:56:13.359Z,99.90
2023-04-16T06:57:16.079Z,99.90
2023-04-16T06:58:17.931Z,99.90
2023-04-16T06:59:19.676Z,99.90
2023-04-16T07:00:21.497Z,99.90
2023-04-16T07:01:23.353Z,99.90
2023-04-16T07:02:25.490Z,99.90
2023-04-16T07:03:27.673Z,99.90
2023-04-16T07:04:29.668Z,99.90
2023-04-16T07:05:31.723Z,99.90
2023-04-16T07:06:33.453Z,99.90
2023-04-16T07:07:35.606Z,99.90
2023-04-16T07:08:37.373Z,99.90
2023-04-16T07:09:39.133Z,99.90
2023-04-16T07:10:40.944Z,99.90
2023-04-16T07:11:42.764Z,99.90
2023-04-16T07:12:44.786Z,99.90
2023-04-16T07:13:46.598Z,99.90
2023-04-16T07:14:48.461Z,99.90
2023-04-16T07:15:50.427Z,99.90
2023-04-16T07:16:52.200Z,99.90
2023-04-16T07:17:54.056Z,99.90
2023-04-16T07:18:55.847Z,99.90
2023-04-16T07:19:57.567Z,99.90
2023-04-16T07:20:59.279Z,99.90
2023-04-16T07:22:01.367Z,99.90
2023-04-16T07:23:03.139Z,99.90
2023-04-16T07:24:04.997Z,99.90
2023-04-16T07:25:07.150Z,99.90
2023-04-16T07:26:09.062Z,99.90
2023-04-16T07:27:11.516Z,99.90
2023-04-16T07:28:13.745Z,99.90
2023-04-16T07:29:15.677Z,99.90
2023-04-16T07:30:17.722Z,99.90
2023-04-16T07:31:19.521Z,99.90
2023-04-16T07:32:22.672Z,99.90
2023-04-16T07:33:24.670Z,99.90
2023-04-16T07:34:26.579Z,99.90
2023-04-16T07:35:28.898Z,99.90
2023-04-16T07:36:31.842Z,99.90
2023-04-16T07:37:33.623Z,99.90
2023-04-16T07:38:35.444Z,99.90
2023-04-16T07:39:37.236Z,99.90
2023-04-16T07:40:39.093Z,99.90
2023-04-16T07:41:41.242Z,99.90
2023-04-16T07:42:43.462Z,99.90
2023-04-16T07:43:45.388Z,99.90
2023-04-16T07:44:47.152Z,99.90
2023-04-16T07:45:48.900Z,99.90
2023-04-16T07:46:50.965Z,99.90
2023-04-16T07:47:52.823Z,99.90
2023-04-16T07:48:54.658Z,99.90
2023-04-16T07:49:56.405Z,99.90
2023-04-16T07:50:58.218Z,99.90
2023-04-16T07:52:00.005Z,99.90
2023-04-16T07:53:01.780Z,99.90
2023-04-16T07:54:03.571Z,99.90
2023-04-16T07:55:05.929Z,99.90
2023-04-16T07:56:08.140Z,99.90
2023-04-16T07:57:09.908Z,99.90
2023-04-16T07:58:11.653Z,99.90
2023-04-16T07:59:22.016Z,99.90
2023-04-16T08:00:26.397Z,99.90
2023-04-16T08:01:28.275Z,99.90
2023-04-16T08:02:30.297Z,99.90
2023-04-16T08:03:32.383Z,99.90
2023-04-16T08:04:34.519Z,99.90
2023-04-16T08:05:36.404Z,99.90
2023-04-16T08:06:38.354Z,99.90
2023-04-16T08:07:40.257Z,99.90
2023-04-16T08:08:42.043Z,99.90
2023-04-16T08:09:51.952Z,99.90
2023-04-16T08:10:56.126Z,99.90
2023-04-16T08:11:57.960Z,99.90
2023-04-16T08:13:01.580Z,99.90
2023-04-16T08:14:03.370Z,99.90
2023-04-16T08:15:06.243Z,99.90
2023-04-16T08:16:08.144Z,99.90
2023-04-16T08:17:09.965Z,99.90
2023-04-16T08:18:15.522Z,99.90
2023-04-16T08:19:17.506Z,99.90
2023-04-16T08:20:19.662Z,99.90
2023-04-16T08:21:22.114Z,99.90
2023-04-16T08:22:23.876Z,99.90
2023-04-16T08:23:25.653Z,99.90
2023-04-16T08:24:27.485Z,99.90
2023-04-16T08:25:29.188Z,99.90
2023-04-16T08:26:31.154Z,99.90
2023-04-16T08:27:32.959Z,99.90
2023-04-16T08:28:34.809Z,99.90
2023-04-16T08:29:36.559Z,99.90
2023-04-16T08:30:38.325Z,99.90
2023-04-16T08:31:40.683Z,99.90
2023-04-16T08:32:43.350Z,99.90
2023-04-16T08:33:45.306Z,99.90
2023-04-16T08:34:47.128Z,99.90
2023-04-16T08:35:48.929Z,99.90
2023-04-16T08:36:50.726Z,99.90
2023-04-16T08:37:53.710Z,99.90
2023-04-16T08:38:55.551Z,99.90
2023-04-16T08:39:57.291Z,99.90
2023-04-16T08:41:05.676Z,99.90
2023-04-16T08:42:23.535Z,99.90
2023-04-16T08:43:26.021Z,99.90
2023-04-16T08:44:41.198Z,99.90
2023-04-16T08:45:44.009Z,99.90
2023-04-16T08:46:47.191Z,99.90
2023-04-16T08:47:51.914Z,99.90
2023-04-16T08:48:57.753Z,99.90
2023-04-16T08:50:00.687Z,99.90
2023-04-16T08:51:02.975Z,99.90
2023-04-16T08:52:08.983Z,99.90
2023-04-16T08:53:16.610Z,99.90
2023-04-16T08:54:30.354Z,99.90
2023-04-16T08:55:40.651Z,99.90
2023-04-16T08:56:43.303Z,99.90
2023-04-16T08:57:50.692Z,99.90
2023-04-16T08:58:55.253Z,99.90
2023-04-16T08:59:57.736Z,99.90
2023-04-16T09:00:59.612Z,99.90
2023-04-16T09:02:02.543Z,99.90
2023-04-16T09:03:04.595Z,99.90
2023-04-16T09:04:07.655Z,99.90
2023-04-16T09:05:17.061Z,99.90
2023-04-16T09:06:19.565Z,99.90
2023-04-16T09:07:22.567Z,99.90
2023-04-16T09:08:25.732Z,99.90
2023-04-16T09:09:28.523Z,99.90
2023-04-16T09:10:30.362Z,99.90
2023-04-16T09:11:32.402Z,99.90
2023-04-16T09:12:35.779Z,99.90
2023-04-16T09:13:38.229Z,99.90
2023-04-16T09:14:41.902Z,99.90
2023-04-16T09:15:44.511Z,99.90
2023-04-16T09:16:47.843Z,99.90
2023-04-16T09:17:50.861Z,99.90
2023-04-16T09:18:52.656Z,99.90
2023-04-16T09:19:54.948Z,99.90
2023-04-16T09:20:57.167Z,99.90
2023-04-16T09:21:58.955Z,99.90
2023-04-16T09:23:00.728Z,99.90
2023-04-16T09:24:03.530Z,99.90
2023-04-16T09:25:05.918Z,99.90
2023-04-16T09:26:07.693Z,99.90
2023-04-16T09:27:09.520Z,99.90
2023-04-16T09:28:11.265Z,99.90
2023-04-16T09:29:36.302Z,99.90
2023-04-16T09:30:38.091Z,99.90
2023-04-16T09:31:39.992Z,99.90
2023-04-16T09:32:41.814Z,99.90
2023-04-16T09:33:44.726Z,99.90
2023-04-16T09:35:00.733Z,99.90
2023-04-16T09:36:02.718Z,99.90
2023-04-16T09:37:17.762Z,99.90
2023-04-16T09:38:20.461Z,99.90
2023-04-16T09:39:23.445Z,99.90
2023-04-16T09:40:27.444Z,99.90
2023-04-16T09:41:35.834Z,99.90
2023-04-16T09:42:37.747Z,99.90
2023-04-16T09:43:40.905Z,99.90
2023-04-16T09:44:51.949Z,99.90
2023-04-16T09:45:55.218Z,99.90
2023-04-16T09:47:09.644Z,99.90
2023-04-16T09:48:12.585Z,99.90
2023-04-16T09:49:16.123Z,99.90
2023-04-16T09:50:19.727Z,99.90
2023-04-16T09:51:21.617Z,99.90
2023-04-16T09:52:23.625Z,99.90
2023-04-16T09:53:30.375Z,99.90
2023-04-16T09:54:32.112Z,99.90
2023-04-16T09:55:34.361Z,99.90
2023-04-16T09:56:46.560Z,99.90
2023-04-16T09:57:48.744Z,99.90
2023-04-16T09:58:50.638Z,99.90
2023-04-16T10:00:03.738Z,99.90
2023-04-16T10:01:11.899Z,99.90
2023-04-16T10:02:15.866Z,99.90
2023-04-16T10:03:18.313Z,99.90
2023-04-16T10:04:20.532Z,99.90
2023-04-16T10:05:22.367Z,99.90
2023-04-16T10:06:27.628Z,99.90
2023-04-16T10:07:33.177Z,99.90
2023-04-16T10:08:34.911Z,99.90
2023-04-16T10:09:40.530Z,99.90
2023-04-16T10:10:42.454Z,99.90
2023-04-16T10:11:44.323Z,99.90
2023-04-16T10:12:46.293Z,99.90
2023-04-16T10:13:48.214Z,99.90
2023-04-16T10:14:50.444Z,99.90
2023-04-16T10:15:52.566Z,99.90
2023-04-16T10:16:56.085Z,99.90
2023-04-16T10:17:58.914Z,99.90
2023-04-16T10:19:00.925Z,99.90
2023-04-16T10:20:03.675Z,99.90
2023-04-16T10:21:05.761Z,99.90
2023-04-16T10:22:07.565Z,99.90
2023-04-16T10:23:11.688Z,99.90
2023-04-16T10:24:16.622Z,99.90
2023-04-16T10:25:18.579Z,99.90
2023-04-16T10:26:21.020Z,99.90
2023-04-16T10:27:22.985Z,99.90
2023-04-16T10:28:25.353Z,99.90
2023-04-16T10:29:29.369Z,99.90
2023-04-16T10:30:31.575Z,99.90
2023-04-16T10:31:33.704Z,99.90
2023-04-16T10:32:36.883Z,99.90
2023-04-16T10:33:41.307Z,99.90
2023-04-16T10:34:43.319Z,99.90
2023-04-16T10:35:52.423Z,99.90
2023-04-16T10:37:02.968Z,99.90
2023-04-16T10:38:27.948Z,99.90
2023-04-16T10:39:29.828Z,99.90
2023-04-16T10:40:31.734Z,99.90
2023-04-16T10:41:33.726Z,99.90
2023-04-16T10:42:35.565Z,99.90
2023-04-16T10:43:45.118Z,99.90
2023-04-16T10:44:46.973Z,99.90
2023-04-16T10:45:49.061Z,99.90
2023-04-16T10:46:50.877Z,99.90
2023-04-16T10:47:57.158Z,99.90
2023-04-16T10:49:12.304Z,99.90
2023-04-16T10:50:17.119Z,99.90
2023-04-16T10:51:34.870Z,99.90
2023-04-16T10:52:36.635Z,99.90
2023-04-16T10:53:38.424Z,99.90
2023-04-16T10:54:41.256Z,99.90
2023-04-16T10:56:09.871Z,99.90
2023-04-16T10:57:17.792Z,99.90
2023-04-16T10:58:32.415Z,99.90
2023-04-16T10:59:36.032Z,99.90
2023-04-16T11:00:51.690Z,99.90
2023-04-16T11:01:55.966Z,99.90
2023-04-16T11:02:57.987Z,99.90
2023-04-16T11:04:19.307Z,99.90
2023-04-16T11:05:24.570Z,99.90
2023-04-16T11:06:27.683Z,99.90
2023-04-16T11:07:35.985Z,99.90
2023-04-16T11:08:53.975Z,99.90
2023-04-16T11:10:13.048Z,99.90
2023-04-16T11:11:14.864Z,99.90
2023-04-16T11:12:21.104Z,99.90
2023-04-16T11:13:22.991Z,99.90
2023-04-16T11:14:24.770Z,99.90
2023-04-16T11:15:30.897Z,99.90
2023-04-16T11:16:32.791Z,99.90
2023-04-16T11:17:39.268Z,99.90
2023-04-16T11:18:51.299Z,99.90
2023-04-16T11:19:53.831Z,99.90
2023-04-16T11:20:55.999Z,99.90
2023-04-16T11:21:58.198Z,99.90
2023-04-16T11:23:00.028Z,99.90
2023-04-16T11:24:01.785Z,99.90
2023-04-16T11:25:03.906Z,99.90
2023-04-16T11:26:05.666Z,99.90
2023-04-16T11:27:08.316Z,99.90
2023-04-16T11:28:10.094Z,99.90
2023-04-16T11:29:17.822Z,99.90
2023-04-16T11:30:33.246Z,99.90
2023-04-16T11:31:35.172Z,99.90
2023-04-16T11:32:38.650Z,99.90
2023-04-16T11:33:40.530Z,99.90
2023-04-16T11:34:45.974Z,99.90
2023-04-16T11:35:58.054Z,99.90
2023-04-16T11:36:59.883Z,99.90
2023-04-16T11:38:01.756Z,99.90
2023-04-16T11:39:04.805Z,99.90
2023-04-16T11:40:10.169Z,99.90
2023-04-16T11:41:22.445Z,99.90
2023-04-16T11:42:25.109Z,99.90
2023-04-16T11:43:28.279Z,99.90
2023-04-16T11:44:31.370Z,99.90
2023-04-16T11:45:34.336Z,99.90
2023-04-16T11:46:42.027Z,99.90
2023-04-16T11:47:50.649Z,99.50
2023-04-16T11:48:59.176Z,99.90
2023-04-16T11:50:29.673Z,99.90
2023-04-16T11:51:34.068Z,99.90
2023-04-16T11:52:36.765Z,99.90
2023-04-16T11:53:50.074Z,99.90
2023-04-16T11:54:52.096Z,99.80
2023-04-16T11:55:53.916Z,99.40
2023-04-16T11:56:55.748Z,99.10
2023-04-16T11:57:57.632Z,98.90
2023-04-16T11:59:16.978Z,97.40
2023-04-16T12:00:19.134Z,97.70
2023-04-16T12:01:26.467Z,98.90
2023-04-16T12:02:57.984Z,98.80
2023-04-16T12:04:02.951Z,98.40
2023-04-16T12:05:26.539Z,97.80
2023-04-16T12:06:28.491Z,98.50
2023-04-16T12:07:30.608Z,98.50
2023-04-16T12:08:32.567Z,99.20
2023-04-16T12:09:40.130Z,98.70
2023-04-16T12:10:55.485Z,99.90
2023-04-16T12:11:57.312Z,98.00
2023-04-16T12:13:16.154Z,98.70
2023-04-16T12:14:18.090Z,98.00
2023-04-16T12:15:19.937Z,98.40
2023-04-16T12:16:21.846Z,97.80
2023-04-16T12:17:24.154Z,98.00
2023-04-16T12:18:29.480Z,97.50
2023-04-16T12:19:31.235Z,97.40
2023-04-16T12:20:41.633Z,97.10
2023-04-16T12:21:45.806Z,96.50
2023-04-16T12:22:49.653Z,97.00
2023-04-16T12:23:54.565Z,98.00
2023-04-16T12:25:04.147Z,97.40
2023-04-16T12:26:12.426Z,98.50
2023-04-16T12:27:16.270Z,98.50
2023-04-16T12:28:34.912Z,98.80
2023-04-16T12:29:38.716Z,97.40
2023-04-16T12:30:50.659Z,96.80
2023-04-16T12:31:53.461Z,97.20
2023-04-16T12:33:15.353Z,98.10
2023-04-16T12:34:18.220Z,98.20
2023-04-16T12:35:33.583Z,98.10
2023-04-16T12:36:35.352Z,97.90
2023-04-16T12:37:38.670Z,98.30
2023-04-16T12:38:40.388Z,98.30
2023-04-16T12:39:42.199Z,98.90
2023-04-16T12:40:44.039Z,99.10
2023-04-16T12:41:45.827Z,98.30
2023-04-16T12:42:47.541Z,98.10
2023-04-16T12:43:49.297Z,97.90
2023-04-16T12:44:51.480Z,98.20
2023-04-16T12:45:53.454Z,99.10
2023-04-16T12:46:55.350Z,99.80
2023-04-16T12:47:57.608Z,98.30
2023-04-16T12:48:59.460Z,98.80
2023-04-16T12:50:01.390Z,99.70
2023-04-16T12:51:03.284Z,99.80
2023-04-16T12:52:05.920Z,99.40
2023-04-16T12:53:07.710Z,99.60
2023-04-16T12:54:09.493Z,99.30
2023-04-16T12:55:12.480Z,99.30
2023-04-16T12:56:14.295Z,99.20
2023-04-16T12:57:16.654Z,99.10
2023-04-16T12:58:18.367Z,99.10
2023-04-16T12:59:20.198Z,99.10
2023-04-16T13:00:22.635Z,98.40
2023-04-16T13:01:24.788Z,98.20
2023-04-16T13:02:26.956Z,98.50
2023-04-16T13:03:28.963Z,98.50
2023-04-16T13:04:30.883Z,97.80
2023-04-16T13:05:32.815Z,97.60
2023-04-16T13:06:36.763Z,96.80
2023-04-16T13:07:38.740Z,97.40
2023-04-16T13:08:41.440Z,97.70
2023-04-16T13:09:43.793Z,96.60
2023-04-16T13:10:45.572Z,96.70
2023-04-16T13:11:47.338Z,97.80
2023-04-16T13:12:49.277Z,97.80
2023-04-16T13:13:51.127Z,98.50
2023-04-16T13:14:53.590Z,98.00
2023-04-16T13:15:55.402Z,97.80
2023-04-16T13:16:57.151Z,98.50
2023-04-16T13:17:59.063Z,98.00
2023-04-16T13:19:00.864Z,98.00
2023-04-16T13:20:02.643Z,97.50
2023-04-16T13:21:04.809Z,97.90
2023-04-16T13:22:06.591Z,98.40
2023-04-16T13:23:08.709Z,98.90
2023-04-16T13:24:10.560Z,99.00
2023-04-16T13:25:12.386Z,99.20
2023-04-16T13:26:15.832Z,99.00
2023-04-16T13:27:17.962Z,99.10
2023-04-16T13:28:19.730Z,99.20
2023-04-16T13:29:21.474Z,99.50
2023-04-16T13:30:23.293Z,99.40
2023-04-16T13:31:26.026Z,99.10
2023-04-16T13:32:27.852Z,99.80
2023-04-16T13:33:29.700Z,99.90